Time;durP1;ratioP1;P1;durP2;ratioP2;P2;SDS_P1;SDS_P2;PMS_P1;PMS_P2;Temp;Humidity;BMP_temperature;BMP_pressure;BME280_temperature;BME280_humidity;BME280_pressure;Samples;Min_cycle;Max_cycle;Signal;HPM_P1;HPM_P2
2022/04/11 00:00:15;;;;;;;25.23;15.15;;;8.10;99.90;;;;;;5030459;28;20071;-56
2022/04/11 00:02:40;;;;;;;21.33;14.07;;;8.00;99.90;;;;;;5030714;28;20387;-56
2022/04/11 00:05:06;;;;;;;17.65;13.48;;;8.00;99.90;;;;;;5030511;28;20030;-56
2022/04/11 00:07:32;;;;;;;19.48;13.73;;;8.10;99.90;;;;;;5031043;28;20059;-56
2022/04/11 00:09:58;;;;;;;17.50;13.57;;;8.10;99.90;;;;;;5030889;28;20029;-56
2022/04/11 00:12:23;;;;;;;22.17;13.57;;;8.10;99.90;;;;;;5031008;28;20034;-56
2022/04/11 00:14:49;;;;;;;21.60;13.95;;;8.10;99.90;;;;;;5030786;28;20503;-56
2022/04/11 00:17:14;;;;;;;21.80;14.50;;;8.00;99.90;;;;;;5030559;28;20029;-56
2022/04/11 00:19:40;;;;;;;24.50;14.52;;;7.90;99.90;;;;;;5030148;28;20048;-56
2022/04/11 00:22:06;;;;;;;21.60;14.40;;;7.90;99.90;;;;;;5030589;28;20042;-56
2022/04/11 00:24:31;;;;;;;18.33;13.52;;;8.10;99.90;;;;;;5031346;28;20487;-56
2022/04/11 00:26:57;;;;;;;22.70;13.95;;;8.10;99.90;;;;;;5031023;28;20079;-56
2022/04/11 00:29:22;;;;;;;19.80;13.30;;;8.00;99.90;;;;;;5030486;28;20045;-56
2022/04/11 00:31:48;;;;;;;16.90;11.88;;;7.90;99.90;;;;;;5030645;28;20382;-56
2022/04/11 00:34:14;;;;;;;22.00;13.45;;;7.90;99.90;;;;;;5030798;28;20033;-56
2022/04/11 00:36:39;;;;;;;17.05;12.48;;;7.80;99.90;;;;;;5030881;28;20056;-56
2022/04/11 00:39:05;;;;;;;20.33;13.15;;;7.70;99.90;;;;;;5030377;28;20234;-56
2022/04/11 00:41:30;;;;;;;22.35;13.80;;;7.70;99.90;;;;;;5033279;28;20025;-56
2022/04/11 00:43:56;;;;;;;17.30;12.68;;;7.70;99.90;;;;;;5034480;28;20025;-56
2022/04/11 00:46:22;;;;;;;20.83;12.85;;;7.80;99.90;;;;;;5034501;28;20120;-56
2022/04/11 00:48:47;;;;;;;19.27;12.85;;;7.80;99.90;;;;;;5033817;28;20033;-56
2022/04/11 00:51:17;;;;;;;17.85;12.50;;;7.80;99.90;;;;;;5033382;28;20475;-56
2022/04/11 00:53:45;;;;;;;28.10;13.07;;;7.70;99.90;;;;;;5034008;28;20112;-56
2022/04/11 00:56:13;;;;;;;19.40;12.35;;;7.50;99.90;;;;;;5033867;28;20498;-56
2022/04/11 00:58:39;;;;;;;18.10;12.65;;;7.40;99.90;;;;;;5033868;28;20071;-56
2022/04/11 01:01:06;;;;;;;21.15;12.63;;;7.30;99.90;;;;;;5032405;28;20017;-56
2022/04/11 01:03:32;;;;;;;23.42;12.82;;;7.40;99.90;;;;;;5033768;28;20391;-56
2022/04/11 01:06:00;;;;;;;18.10;12.57;;;7.50;99.90;;;;;;5015337;28;20479;-57
2022/04/11 01:08:25;;;;;;;17.13;12.73;;;7.50;99.90;;;;;;5065372;28;20060;-57
2022/04/11 01:10:54;;;;;;;20.05;13.50;;;7.40;99.90;;;;;;5032985;28;20431;-57
2022/04/11 01:13:20;;;;;;;20.15;13.05;;;7.30;99.90;;;;;;5033151;28;20034;-56
2022/04/11 01:16:12;;;;;;;17.17;12.98;;;7.00;99.90;;;;;;5033367;28;20514;-56
2022/04/11 01:18:39;;;;;;;18.48;12.43;;;6.90;99.90;;;;;;5034451;28;20560;-57
2022/04/11 01:21:08;;;;;;;20.75;13.57;;;6.70;99.90;;;;;;5032511;28;20084;-56
2022/04/11 01:23:34;;;;;;;24.60;13.65;;;6.70;99.90;;;;;;5049094;28;20470;-56
2022/04/11 01:26:00;;;;;;;23.20;12.27;;;6.60;99.90;;;;;;5051730;28;20056;-56
2022/04/11 01:28:26;;;;;;;22.30;13.32;;;6.60;99.90;;;;;;5053115;28;20508;-56
2022/04/11 01:30:55;;;;;;;22.65;13.15;;;6.60;99.90;;;;;;5052867;28;20100;-56
2022/04/11 01:33:23;;;;;;;19.85;12.48;;;6.60;99.90;;;;;;5053192;28;20025;-56
2022/04/11 01:35:49;;;;;;;19.42;12.10;;;6.50;99.90;;;;;;5052914;28;20028;-56
2022/04/11 01:38:14;;;;;;;16.77;12.63;;;6.40;99.90;;;;;;5053009;28;20381;-56
2022/04/11 01:40:51;;;;;;;16.80;12.32;;;6.50;99.90;;;;;;5052777;28;20036;-56
2022/04/11 01:43:17;;;;;;;17.38;12.32;;;6.40;99.90;;;;;;5053323;28;20040;-56
2022/04/11 01:45:43;;;;;;;23.15;12.65;;;6.40;99.90;;;;;;5052788;28;20028;-56
2022/04/11 01:48:09;;;;;;;19.80;12.68;;;6.40;99.90;;;;;;5052703;28;20029;-56
2022/04/11 01:50:34;;;;;;;15.82;11.60;;;6.40;99.90;;;;;;5052658;28;20119;-56
2022/04/11 01:53:14;;;;;;;19.20;11.10;;;6.30;99.90;;;;;;5052197;28;20028;-56
2022/04/11 01:55:40;;;;;;;20.23;12.45;;;6.30;99.90;;;;;;5052752;28;20033;-57
2022/04/11 01:58:07;;;;;;;19.98;12.10;;;6.30;99.90;;;;;;5052618;28;20029;-56
2022/04/11 02:00:34;;;;;;;26.95;12.27;;;6.30;99.90;;;;;;5052654;28;20559;-56
2022/04/11 02:03:00;;;;;;;18.80;12.55;;;6.30;99.90;;;;;;5052407;28;20027;-56
2022/04/11 02:05:27;;;;;;;16.83;11.48;;;6.30;99.90;;;;;;5051798;28;20501;-56
2022/04/11 02:07:53;;;;;;;15.38;11.35;;;6.20;99.90;;;;;;5052158;28;20032;-56
2022/04/11 02:10:18;;;;;;;18.95;11.68;;;6.10;99.90;;;;;;5052032;28;20051;-56
2022/04/11 02:12:44;;;;;;;19.38;11.30;;;6.10;99.90;;;;;;5052639;28;20036;-56
2022/04/11 02:15:11;;;;;;;17.45;12.07;;;5.90;99.90;;;;;;5052592;28;20431;-56
2022/04/11 02:17:37;;;;;;;18.08;11.43;;;5.90;99.90;;;;;;5052407;28;20021;-56
2022/04/11 02:20:04;;;;;;;18.10;11.07;;;5.90;99.90;;;;;;5051868;28;20147;-56
2022/04/11 02:22:42;;;;;;;17.25;11.15;;;5.80;99.90;;;;;;5044406;28;20072;-56
2022/04/11 02:25:08;;;;;;;16.42;11.32;;;5.90;99.90;;;;;;5030370;28;20021;-56
2022/04/11 02:27:34;;;;;;;17.27;10.73;;;6.00;99.90;;;;;;5031629;28;20037;-56
2022/04/11 02:29:59;;;;;;;17.08;11.02;;;6.10;99.90;;;;;;5063860;28;20067;-56
2022/04/11 02:32:25;;;;;;;16.70;10.82;;;6.20;99.90;;;;;;5032426;28;20034;-56
2022/04/11 02:34:50;;;;;;;16.00;11.23;;;6.20;99.90;;;;;;5031713;28;20029;-56
2022/04/11 02:37:16;;;;;;;15.18;10.98;;;6.30;99.90;;;;;;5032193;28;20026;-56
2022/04/11 02:39:41;;;;;;;14.55;10.85;;;6.30;99.90;;;;;;5032053;28;20028;-56
2022/04/11 02:42:07;;;;;;;15.23;11.00;;;6.10;99.90;;;;;;5032036;28;20506;-56
2022/04/11 02:44:33;;;;;;;20.20;12.00;;;6.10;99.90;;;;;;5032092;28;20041;-56
2022/04/11 02:46:58;;;;;;;18.05;11.52;;;5.90;99.90;;;;;;5031589;28;20029;-56
2022/04/11 02:49:24;;;;;;;16.98;10.73;;;5.90;99.90;;;;;;5032254;28;20030;-56
2022/04/11 02:51:50;;;;;;;18.60;10.82;;;5.90;99.90;;;;;;5031633;28;20098;-56
2022/04/11 02:54:15;;;;;;;19.70;11.13;;;5.80;99.90;;;;;;5031955;28;20041;-56
2022/04/11 02:56:41;;;;;;;22.60;10.13;;;5.90;99.90;;;;;;5031817;28;20024;-56
2022/04/11 02:59:06;;;;;;;84.60;13.68;;;5.90;99.90;;;;;;5063682;28;20548;-56
2022/04/11 03:01:32;;;;;;;35.40;12.30;;;6.00;99.90;;;;;;5032166;28;20065;-56
2022/04/11 03:03:59;;;;;;;14.88;9.40;;;5.90;99.90;;;;;;5031782;28;20368;-56
2022/04/11 03:06:25;;;;;;;25.80;10.40;;;5.90;99.90;;;;;;5031747;28;20037;-56
2022/04/11 03:08:50;;;;;;;24.52;10.35;;;6.00;99.90;;;;;;5031870;28;20047;-56
2022/04/11 03:11:16;;;;;;;17.17;9.68;;;6.10;99.90;;;;;;5031732;28;20022;-56
2022/04/11 03:13:42;;;;;;;20.65;9.10;;;6.00;99.90;;;;;;5032019;28;20070;-56
2022/04/11 03:16:07;;;;;;;28.17;10.45;;;6.00;99.90;;;;;;5031700;28;20080;-56
2022/04/11 03:18:34;;;;;;;26.67;10.35;;;6.20;99.90;;;;;;5031690;28;20406;-56
2022/04/11 03:20:59;;;;;;;19.75;9.80;;;6.10;99.90;;;;;;5032024;28;20602;-56
2022/04/11 03:23:25;;;;;;;21.67;9.40;;;6.00;99.90;;;;;;5031408;28;20079;-56
2022/04/11 03:25:51;;;;;;;18.33;8.73;;;6.00;99.90;;;;;;5031327;28;20030;-56
2022/04/11 03:28:16;;;;;;;16.98;9.27;;;5.90;99.90;;;;;;5031380;28;20057;-56
2022/04/11 03:30:42;;;;;;;15.10;8.80;;;5.90;99.90;;;;;;5030955;28;20353;-56
2022/04/11 03:33:07;;;;;;;17.20;9.55;;;5.90;99.90;;;;;;5032003;28;20033;-56
2022/04/11 03:35:33;;;;;;;24.38;9.82;;;5.90;99.90;;;;;;5031002;28;20073;-56
2022/04/11 03:37:58;;;;;;;32.72;10.10;;;5.90;99.90;;;;;;5031226;28;20387;-56
2022/04/11 03:40:24;;;;;;;16.58;9.10;;;5.90;99.90;;;;;;5031317;28;20026;-56
2022/04/11 03:42:50;;;;;;;22.55;9.23;;;6.00;99.90;;;;;;5031854;28;20022;-56
2022/04/11 03:45:15;;;;;;;18.52;9.02;;;6.00;99.90;;;;;;5031737;28;20068;-56
2022/04/11 03:47:41;;;;;;;13.38;8.32;;;5.90;99.90;;;;;;5031487;28;20029;-56
2022/04/11 03:50:07;;;;;;;17.73;7.80;;;5.90;99.90;;;;;;5031639;28;20033;-56
2022/04/11 03:52:33;;;;;;;15.90;8.10;;;5.90;99.90;;;;;;5031486;28;20510;-56
2022/04/11 03:54:58;;;;;;;11.15;7.15;;;6.00;99.90;;;;;;5031174;28;20049;-56
2022/04/11 03:57:24;;;;;;;18.13;7.85;;;6.00;99.90;;;;;;5031008;28;20021;-56
2022/04/11 03:59:49;;;;;;;16.13;8.32;;;6.00;99.90;;;;;;5031238;28;20021;-56
2022/04/11 04:02:15;;;;;;;13.98;7.65;;;6.00;99.90;;;;;;5030150;28;20028;-56
2022/04/11 04:04:41;;;;;;;12.90;7.07;;;5.90;99.90;;;;;;5030620;28;20071;-56
2022/04/11 04:07:06;;;;;;;16.98;7.78;;;5.90;99.90;;;;;;5030902;28;20116;-56
2022/04/11 04:09:32;;;;;;;13.27;7.07;;;5.90;99.90;;;;;;5030609;28;20070;-56
2022/04/11 04:11:58;;;;;;;11.35;7.20;;;5.80;99.90;;;;;;5030955;28;20537;-56
2022/04/11 04:14:23;;;;;;;17.55;7.30;;;5.70;99.90;;;;;;5030946;28;20087;-56
2022/04/11 04:16:49;;;;;;;15.43;7.00;;;5.70;99.90;;;;;;5034485;28;20100;-56
2022/04/11 04:19:15;;;;;;;14.75;6.75;;;5.70;99.90;;;;;;5034578;28;20029;-56
2022/04/11 04:21:40;;;;;;;11.93;7.60;;;5.80;99.90;;;;;;5035141;28;20021;-56
2022/04/11 04:24:06;;;;;;;11.23;6.70;;;5.70;99.90;;;;;;5054507;28;20025;-56
2022/04/11 04:26:32;;;;;;;14.65;6.88;;;5.70;99.90;;;;;;5054494;28;20401;-56
2022/04/11 04:28:58;;;;;;;16.70;7.20;;;5.70;99.90;;;;;;5054287;28;20032;-56
2022/04/11 04:31:23;;;;;;;10.90;6.60;;;5.90;99.90;;;;;;5054518;28;20079;-56
2022/04/11 04:33:49;;;;;;;12.85;6.55;;;5.90;99.90;;;;;;5054694;28;20028;-56
2022/04/11 04:36:14;;;;;;;21.20;6.72;;;6.00;99.90;;;;;;5054101;28;20475;-56
2022/04/11 04:38:40;;;;;;;14.07;6.57;;;6.00;99.90;;;;;;5054092;28;20044;-56
2022/04/11 04:41:05;;;;;;;16.02;6.40;;;5.90;99.90;;;;;;5054485;28;20442;-56
2022/04/11 04:43:31;;;;;;;13.00;6.13;;;5.90;99.90;;;;;;5053289;28;20029;-56
2022/04/11 04:45:57;;;;;;;17.85;6.32;;;6.00;99.90;;;;;;5054312;28;20044;-56
2022/04/11 04:48:22;;;;;;;17.08;6.97;;;6.00;99.90;;;;;;5053165;28;20064;-57
2022/04/11 04:50:48;;;;;;;13.95;6.13;;;6.20;99.90;;;;;;5055014;28;20047;-56
2022/04/11 04:53:13;;;;;;;10.52;5.63;;;6.10;99.90;;;;;;5052938;28;20033;-57
2022/04/11 04:55:39;;;;;;;18.30;6.50;;;6.20;99.90;;;;;;5052678;28;20079;-57
2022/04/11 04:58:05;;;;;;;20.77;6.30;;;6.30;99.90;;;;;;5054691;28;20025;-57
2022/04/11 05:00:30;;;;;;;10.75;6.63;;;6.10;99.90;;;;;;5054208;28;20029;-57
2022/04/11 05:02:56;;;;;;;16.20;6.70;;;6.00;99.90;;;;;;5054687;28;20025;-57
2022/04/11 05:05:22;;;;;;;15.85;6.72;;;6.00;99.90;;;;;;5053883;28;20021;-56
2022/04/11 05:07:47;;;;;;;15.90;6.45;;;6.20;99.90;;;;;;5054765;28;20025;-57
2022/04/11 05:10:14;;;;;;;16.60;6.70;;;6.20;99.90;;;;;;5054321;28;20029;-57
2022/04/11 05:12:44;;;;;;;14.43;5.75;;;6.30;99.90;;;;;;5052553;28;20039;-56
2022/04/11 05:15:11;;;;;;;13.50;5.97;;;6.20;99.90;;;;;;5054211;28;20032;-56
2022/04/11 05:17:37;;;;;;;23.55;6.63;;;6.20;99.90;;;;;;5052637;28;20021;-56
2022/04/11 05:20:05;;;;;;;16.27;5.65;;;6.20;99.90;;;;;;5053911;28;20028;-56
2022/04/11 05:22:31;;;;;;;12.63;5.32;;;6.40;99.90;;;;;;5044821;28;20041;-57
2022/04/11 05:24:56;;;;;;;11.32;5.50;;;6.40;99.90;;;;;;5033261;28;20104;-57
2022/04/11 05:27:22;;;;;;;9.95;5.47;;;6.40;99.90;;;;;;5032356;28;20421;-56
2022/04/11 05:29:48;;;;;;;14.55;5.53;;;6.60;99.90;;;;;;5033669;28;20072;-56
2022/04/11 05:32:13;;;;;;;18.17;6.05;;;6.60;99.90;;;;;;5034147;28;20029;-57
2022/04/11 05:34:39;;;;;;;14.57;6.40;;;6.50;99.90;;;;;;5065464;28;20037;-57
2022/04/11 05:37:06;;;;;;;16.45;5.43;;;6.40;99.90;;;;;;5033493;28;20036;-56
2022/04/11 05:39:31;;;;;;;19.05;6.38;;;6.40;99.90;;;;;;5033658;28;20032;-56
2022/04/11 05:41:57;;;;;;;16.40;5.93;;;6.50;99.90;;;;;;5065322;28;20021;-56
2022/04/11 05:44:23;;;;;;;15.57;6.15;;;6.60;99.90;;;;;;5033681;28;20021;-56
2022/04/11 05:46:52;;;;;;;8.38;5.20;;;6.60;99.90;;;;;;5033085;28;20029;-56
2022/04/11 05:49:20;;;;;;;14.80;5.78;;;6.60;99.90;;;;;;5033464;28;20021;-56
2022/04/11 05:51:46;;;;;;;14.50;5.30;;;6.70;99.90;;;;;;5033506;28;20036;-56
2022/04/11 05:54:12;;;;;;;15.43;5.53;;;6.90;99.90;;;;;;5033381;28;20021;-56
2022/04/11 05:56:37;;;;;;;17.23;5.43;;;6.90;99.90;;;;;;5032868;28;20105;-57
2022/04/11 05:59:04;;;;;;;9.48;4.80;;;6.90;99.90;;;;;;5064587;28;20032;-57
2022/04/11 06:01:30;;;;;;;11.88;4.82;;;6.90;99.90;;;;;;5065301;28;20032;-56
2022/04/11 06:03:56;;;;;;;15.13;5.28;;;7.00;99.90;;;;;;5033158;28;20071;-56
2022/04/11 06:06:22;;;;;;;17.25;5.45;;;7.10;99.90;;;;;;5033072;28;20084;-57
2022/04/11 06:08:47;;;;;;;6.80;3.85;;;7.20;99.90;;;;;;5032552;28;20029;-57
2022/04/11 06:11:13;;;;;;;9.55;4.53;;;7.10;99.90;;;;;;5032510;28;20029;-57
2022/04/11 06:13:45;;;;;;;7.47;4.55;;;7.10;99.90;;;;;;5031600;28;20305;-57
2022/04/11 06:16:14;;;;;;;8.23;4.60;;;7.10;99.90;;;;;;5032527;28;20045;-56
2022/04/11 06:18:40;;;;;;;9.63;4.75;;;7.20;99.90;;;;;;5033052;28;20060;-56
2022/04/11 06:21:06;;;;;;;9.10;4.47;;;7.40;99.90;;;;;;5033095;28;20383;-57
2022/04/11 06:23:32;;;;;;;10.40;4.80;;;7.60;99.90;;;;;;5033292;28;20048;-56
2022/04/11 06:25:57;;;;;;;10.10;4.70;;;7.60;99.90;;;;;;5033039;28;20056;-56
2022/04/11 06:28:23;;;;;;;11.38;4.50;;;7.50;99.90;;;;;;5032814;28;20037;-57
2022/04/11 06:30:49;;;;;;;7.57;4.25;;;7.50;99.90;;;;;;5032784;28;20057;-56
2022/04/11 06:33:14;;;;;;;8.63;4.43;;;7.50;99.90;;;;;;5032744;28;20171;-57
2022/04/11 06:35:40;;;;;;;10.30;4.43;;;7.60;99.90;;;;;;5064199;28;20057;-57
2022/04/11 06:38:06;;;;;;;8.13;4.10;;;7.60;99.90;;;;;;5031726;28;20024;-57
2022/04/11 06:40:32;;;;;;;17.48;4.80;;;7.80;99.90;;;;;;5031497;28;20051;-55
2022/04/11 06:42:57;;;;;;;10.15;4.43;;;7.80;99.90;;;;;;5032564;28;20383;-55
2022/04/11 06:45:23;;;;;;;10.20;4.50;;;7.80;99.90;;;;;;5032143;28;20032;-55
2022/04/11 06:47:48;;;;;;;10.32;4.47;;;7.80;99.90;;;;;;5031711;28;20033;-55
2022/04/11 06:50:15;;;;;;;9.35;3.97;;;7.80;99.90;;;;;;5031738;28;20504;-55
2022/04/11 06:52:41;;;;;;;9.50;4.38;;;7.90;99.90;;;;;;5063794;28;20029;-55
2022/04/11 06:55:07;;;;;;;10.10;4.28;;;8.00;99.90;;;;;;5031686;28;20162;-55
2022/04/11 06:57:33;;;;;;;7.53;4.28;;;8.00;99.90;;;;;;5031458;28;20028;-55
2022/04/11 06:59:58;;;;;;;9.60;4.03;;;8.10;99.90;;;;;;5031819;28;20025;-55
2022/04/11 07:02:24;;;;;;;9.10;4.35;;;8.20;99.90;;;;;;5032025;28;20382;-55
2022/04/11 07:04:49;;;;;;;12.18;3.90;;;8.20;99.90;;;;;;5032051;28;20022;-55
2022/04/11 07:07:15;;;;;;;6.82;3.50;;;8.50;99.90;;;;;;5031602;28;20034;-55
2022/04/11 07:09:41;;;;;;;9.90;3.85;;;8.50;99.90;;;;;;5031384;28;20057;-55
2022/04/11 07:12:07;;;;;;;6.43;3.55;;;8.50;99.90;;;;;;5039893;28;20025;-55
2022/04/11 07:14:33;;;;;;;11.73;4.10;;;8.40;99.90;;;;;;5046602;28;20502;-55
2022/04/11 07:16:58;;;;;;;9.88;3.95;;;8.50;99.90;;;;;;5031789;28;20052;-55
2022/04/11 07:19:24;;;;;;;11.43;3.72;;;8.60;99.90;;;;;;5031449;28;20033;-55
2022/04/11 07:21:50;;;;;;;5.43;3.38;;;8.80;99.90;;;;;;5033373;28;20029;-55
2022/04/11 07:24:15;;;;;;;7.70;3.50;;;8.90;99.90;;;;;;5052213;28;20418;-55
2022/04/11 07:26:41;;;;;;;6.82;3.75;;;9.10;99.90;;;;;;5068621;28;20059;-55
2022/04/11 07:29:08;;;;;;;6.38;2.90;;;9.30;99.90;;;;;;5073360;28;20130;-55
2022/04/11 07:31:34;;;;;;;4.70;2.88;;;9.70;99.90;;;;;;5059557;28;20036;-55
2022/04/11 07:34:01;;;;;;;7.63;3.33;;;10.40;99.90;;;;;;5049860;28;20244;-55
2022/04/11 07:36:28;;;;;;;9.10;3.05;;;10.80;99.90;;;;;;5059737;28;20093;-55
2022/04/11 07:38:55;;;;;;;5.70;2.70;;;11.50;99.90;;;;;;5065821;28;20112;-55
2022/04/11 07:41:21;;;;;;;6.65;3.08;;;12.00;98.40;;;;;;5054530;28;20021;-55
2022/04/11 07:43:46;;;;;;;5.10;3.00;;;12.40;97.80;;;;;;5052467;28;20048;-55
2022/04/11 07:46:12;;;;;;;4.50;2.53;;;12.70;95.80;;;;;;5057639;28;20025;-55
2022/04/11 07:48:38;;;;;;;11.68;3.22;;;12.60;94.20;;;;;;5054569;28;20053;-55
2022/04/11 07:51:03;;;;;;;8.40;3.10;;;12.30;96.10;;;;;;5050675;28;20029;-55
2022/04/11 07:53:29;;;;;;;7.07;2.75;;;12.20;94.90;;;;;;5051107;28;20025;-55
2022/04/11 07:55:55;;;;;;;8.32;3.10;;;12.40;95.90;;;;;;5049132;28;20017;-56
2022/04/11 07:58:20;;;;;;;7.10;2.90;;;13.20;94.20;;;;;;5050619;28;20021;-57
2022/04/11 08:00:51;;;;;;;9.95;3.28;;;13.40;93.20;;;;;;5050799;28;20020;-56
2022/04/11 08:03:19;;;;;;;5.60;2.90;;;13.70;92.40;;;;;;5050430;28;20103;-57
2022/04/11 08:05:45;;;;;;;6.25;2.90;;;13.50;92.00;;;;;;5050654;28;20111;-57
2022/04/11 08:08:11;;;;;;;6.40;2.88;;;14.00;91.60;;;;;;5050557;28;20121;-57
2022/04/11 08:10:37;;;;;;;8.45;2.97;;;14.20;90.50;;;;;;5071453;28;20033;-57
2022/04/11 08:13:03;;;;;;;6.20;2.90;;;14.50;91.50;;;;;;5049407;28;20534;-57
2022/04/11 08:15:30;;;;;;;4.38;2.60;;;14.80;86.30;;;;;;5054110;28;20021;-57
2022/04/11 08:17:57;;;;;;;8.05;2.63;;;14.40;87.50;;;;;;5068553;28;20016;-58
2022/04/11 08:20:24;;;;;;;4.55;2.63;;;14.50;88.10;;;;;;5069501;28;20024;-58
2022/04/11 08:22:50;;;;;;;5.80;3.10;;;14.30;88.30;;;;;;5070381;28;20049;-58
2022/04/11 08:25:16;;;;;;;7.03;2.60;;;14.50;87.60;;;;;;5069539;28;20115;-58
2022/04/11 08:27:42;;;;;;;5.55;2.72;;;14.90;86.80;;;;;;5069143;28;20103;-58
2022/04/11 08:30:10;;;;;;;7.85;2.88;;;15.20;86.80;;;;;;5068035;28;20036;-58
2022/04/11 08:32:46;;;;;;;4.47;2.55;;;15.80;84.40;;;;;;5069297;28;20074;-58
2022/04/11 08:35:12;;;;;;;4.35;2.40;;;15.70;82.00;;;;;;5084368;28;20341;-58
2022/04/11 08:37:40;;;;;;;3.30;2.40;;;15.90;83.50;;;;;;5069031;28;20559;-58
2022/04/11 08:40:11;;;;;;;7.93;2.60;;;15.80;80.20;;;;;;5068949;28;20035;-58
2022/04/11 08:42:41;;;;;;;6.53;2.58;;;15.50;82.20;;;;;;5084544;28;20029;-58
2022/04/11 08:45:07;;;;;;;4.53;2.45;;;15.60;80.20;;;;;;5069016;28;20028;-58
2022/04/11 08:47:34;;;;;;;6.82;2.42;;;15.90;82.00;;;;;;5068974;28;20020;-58
2022/04/11 08:50:02;;;;;;;4.63;2.22;;;16.80;81.00;;;;;;5069349;28;20028;-58
2022/04/11 08:52:29;;;;;;;5.32;2.25;;;16.50;78.90;;;;;;5069374;28;20031;-58
2022/04/11 08:54:56;;;;;;;4.10;2.28;;;16.30;77.90;;;;;;5068684;28;20029;-58
2022/04/11 08:57:22;;;;;;;4.32;2.58;;;16.20;78.80;;;;;;5084546;28;20027;-58
2022/04/11 08:59:49;;;;;;;6.30;2.67;;;16.20;80.20;;;;;;5068773;28;20017;-58
2022/04/11 09:02:14;;;;;;;5.13;2.35;;;16.00;78.70;;;;;;5071540;28;20111;-58
2022/04/11 09:04:49;;;;;;;5.90;2.50;;;16.20;77.40;;;;;;5088138;28;20055;-58
2022/04/11 09:07:15;;;;;;;4.82;2.38;;;16.20;77.50;;;;;;5087938;28;20024;-58
2022/04/11 09:09:40;;;;;;;5.18;2.30;;;15.90;76.60;;;;;;5072299;28;20032;-58
2022/04/11 09:12:10;;;;;;;5.50;2.28;;;15.80;77.20;;;;;;5072428;28;20021;-58
2022/04/11 09:14:37;;;;;;;6.40;2.50;;;16.00;77.00;;;;;;5072451;28;20031;-58
2022/04/11 09:17:03;;;;;;;7.70;2.70;;;16.30;77.70;;;;;;5072103;28;20024;-58
2022/04/11 09:19:29;;;;;;;6.47;2.20;;;16.80;75.60;;;;;;5072006;28;20395;-58
2022/04/11 09:21:55;;;;;;;4.90;2.80;;;17.10;74.10;;;;;;5072016;28;20017;-58
2022/04/11 09:24:29;;;;;;;8.38;2.30;;;17.30;74.30;;;;;;5072585;28;20025;-58
2022/04/11 09:26:55;;;;;;;5.25;1.88;;;17.00;71.90;;;;;;5072081;28;20521;-58
2022/04/11 09:29:26;;;;;;;5.05;1.70;;;17.00;72.00;;;;;;5072203;28;20095;-58
2022/04/11 09:31:52;;;;;;;5.20;2.10;;;16.80;71.80;;;;;;5071790;28;20016;-58
2022/04/11 09:34:25;;;;;;;4.82;2.10;;;17.10;72.80;;;;;;5072086;28;20179;-58
2022/04/11 09:36:56;;;;;;;4.68;2.00;;;18.00;72.10;;;;;;5072215;28;20107;-58
2022/04/11 09:39:25;;;;;;;3.55;2.10;;;18.60;70.20;;;;;;5072182;28;20047;-58
2022/04/11 09:41:52;;;;;;;5.00;2.35;;;18.70;69.50;;;;;;5071579;28;20090;-58
2022/04/11 09:44:27;;;;;;;4.72;2.15;;;17.50;69.80;;;;;;5072297;28;20024;-58
2022/04/11 09:47:04;;;;;;;5.50;2.60;;;17.40;72.20;;;;;;5071737;28;20219;-58
2022/04/11 09:49:31;;;;;;;7.00;2.40;;;17.90;72.50;;;;;;5071968;28;20051;-58
2022/04/11 09:52:13;;;;;;;3.50;2.20;;;17.40;69.70;;;;;;5071848;28;20059;-58
2022/04/11 09:54:42;;;;;;;4.25;2.10;;;17.50;69.40;;;;;;5071425;28;20428;-58
2022/04/11 09:57:10;;;;;;;4.65;2.22;;;18.30;71.00;;;;;;5071280;28;20044;-58
2022/04/11 09:59:36;;;;;;;2.97;1.95;;;18.50;67.30;;;;;;5070563;28;20024;-58
2022/04/11 10:02:03;;;;;;;3.17;2.00;;;18.60;66.50;;;;;;5087429;28;20036;-58
2022/04/11 10:04:29;;;;;;;4.28;2.20;;;19.00;66.70;;;;;;5071553;28;20512;-58
2022/04/11 10:06:55;;;;;;;4.60;2.17;;;18.70;63.20;;;;;;5071029;28;20051;-58
2022/04/11 10:09:23;;;;;;;4.15;2.08;;;18.20;66.00;;;;;;5071590;28;20028;-58
2022/04/11 10:11:53;;;;;;;4.32;2.05;;;17.70;64.40;;;;;;5071172;28;20025;-58
2022/04/11 10:14:27;;;;;;;5.20;2.22;;;17.40;65.30;;;;;;5070730;28;20031;-58
2022/04/11 10:16:55;;;;;;;5.05;2.10;;;17.00;65.20;;;;;;5071196;28;20432;-58
2022/04/11 10:19:23;;;;;;;4.13;1.92;;;16.60;66.10;;;;;;5070967;28;20066;-58
2022/04/11 10:21:51;;;;;;;2.80;2.10;;;17.40;68.90;;;;;;5070601;28;20019;-58
2022/04/11 10:24:33;;;;;;;4.72;2.08;;;18.10;66.60;;;;;;5070978;28;20046;-58
2022/04/11 10:27:14;;;;;;;4.90;2.53;;;18.00;65.90;;;;;;5070990;28;20027;-58
2022/04/11 10:29:40;;;;;;;4.57;2.17;;;18.00;66.30;;;;;;5070983;28;20021;-57
2022/04/11 10:32:09;;;;;;;6.03;2.22;;;18.20;64.30;;;;;;5070923;28;20024;-57
2022/04/11 10:34:49;;;;;;;3.60;2.10;;;18.00;63.90;;;;;;5070637;28;20020;-57
2022/04/11 10:37:20;;;;;;;7.40;2.20;;;18.00;64.20;;;;;;5070318;28;20094;-57
2022/04/11 10:39:46;;;;;;;5.75;2.40;;;18.10;64.40;;;;;;5070545;28;20397;-57
2022/04/11 10:42:16;;;;;;;8.35;2.22;;;18.40;64.90;;;;;;5070538;28;20025;-58
2022/04/11 10:44:50;;;;;;;4.05;2.20;;;18.70;63.40;;;;;;5070340;28;20099;-58
2022/04/11 10:47:16;;;;;;;3.00;2.10;;;18.90;63.10;;;;;;5070225;28;20078;-58
2022/04/11 10:49:45;;;;;;;8.73;2.88;;;19.10;62.10;;;;;;5070345;28;20282;-58
2022/04/11 10:52:29;;;;;;;8.95;2.15;;;18.90;62.20;;;;;;5070672;28;20039;-58
2022/04/11 10:55:06;;;;;;;3.85;2.17;;;18.60;61.20;;;;;;5070288;28;20024;-58
2022/04/11 10:57:37;;;;;;;3.20;1.98;;;18.20;62.30;;;;;;5070268;28;20529;-58
2022/04/11 11:00:19;;;;;;;4.10;1.83;;;18.70;62.30;;;;;;5070209;28;20032;-58
2022/04/11 11:02:54;;;;;;;3.35;2.33;;;18.70;59.90;;;;;;5068991;28;20020;-58
2022/04/11 11:05:24;;;;;;;5.13;1.98;;;18.80;59.40;;;;;;5069952;28;20032;-58
2022/04/11 11:08:10;;;;;;;3.40;2.08;;;19.60;59.40;;;;;;5070016;28;20466;-58
2022/04/11 11:10:50;;;;;;;5.50;2.47;;;19.90;59.80;;;;;;5069957;28;20024;-58
2022/04/11 11:13:27;;;;;;;4.45;2.10;;;20.10;58.40;;;;;;5070121;28;20016;-58
2022/04/11 11:16:20;;;;;;;2.05;1.88;;;19.70;58.00;;;;;;5070079;28;20055;-58
2022/04/11 11:18:52;;;;;;;3.38;2.00;;;19.70;58.30;;;;;;5085289;28;20120;-58
2022/04/11 11:21:17;;;;;;;5.13;2.40;;;19.90;57.70;;;;;;5070343;28;20052;-58
2022/04/11 11:24:10;;;;;;;6.22;2.53;;;20.20;58.80;;;;;;5070162;28;20129;-58
2022/04/11 11:26:45;;;;;;;3.13;2.20;;;20.20;58.20;;;;;;5070517;28;20025;-58
2022/04/11 11:29:25;;;;;;;2.90;1.88;;;20.60;58.30;;;;;;5069701;28;20028;-58
2022/04/11 11:32:12;;;;;;;3.72;2.08;;;20.20;56.40;;;;;;5070662;28;20031;-58
2022/04/11 11:34:38;;;;;;;3.88;2.25;;;19.70;57.70;;;;;;5069603;28;20418;-58
2022/04/11 11:37:07;;;;;;;4.20;2.35;;;19.80;57.10;;;;;;5085085;28;20423;-58
2022/04/11 11:39:37;;;;;;;6.72;2.20;;;19.80;56.00;;;;;;5069434;28;20486;-58
2022/04/11 11:42:14;;;;;;;6.85;1.95;;;19.10;57.00;;;;;;5068240;28;20616;-58
2022/04/11 11:44:48;;;;;;;2.67;1.98;;;19.40;58.20;;;;;;5069882;28;20471;-58
2022/04/11 11:47:14;;;;;;;4.32;1.98;;;19.80;57.60;;;;;;5069594;28;20028;-58
2022/04/11 11:49:42;;;;;;;3.70;1.88;;;20.40;56.70;;;;;;5069595;28;20508;-58
2022/04/11 11:52:20;;;;;;;3.72;2.20;;;20.40;55.80;;;;;;5069985;28;20029;-58
2022/04/11 11:54:50;;;;;;;3.85;1.80;;;20.40;56.70;;;;;;5069920;28;20082;-58
2022/04/11 11:57:17;;;;;;;3.35;1.90;;;20.30;54.60;;;;;;5068385;28;20027;-58
2022/04/11 12:00:02;;;;;;;5.53;2.40;;;19.80;55.70;;;;;;5069525;28;20067;-58
2022/04/11 12:05:24;;;;;;;5.28;2.38;;;20.00;56.10;;;;;;5069658;28;20040;-58
2022/04/11 12:08:13;;;;;;;3.67;2.10;;;19.80;58.00;;;;;;5069445;28;20029;-58
2022/04/11 12:10:43;;;;;;;2.63;2.10;;;20.20;57.20;;;;;;5068313;28;20020;-58
2022/04/11 12:13:09;;;;;;;5.13;2.10;;;20.40;56.70;;;;;;5069607;28;20050;-58
2022/04/11 12:15:35;;;;;;;2.83;1.92;;;20.70;56.80;;;;;;5068044;28;20024;-58
2022/04/11 12:18:09;;;;;;;4.47;2.60;;;21.40;55.50;;;;;;5069541;28;20024;-58
2022/04/11 12:20:36;;;;;;;3.67;2.20;;;22.40;55.90;;;;;;5069568;28;20028;-58
2022/04/11 12:23:10;;;;;;;3.45;2.03;;;21.50;53.60;;;;;;5069464;28;20049;-58
2022/04/11 12:25:38;;;;;;;3.55;2.08;;;20.50;56.50;;;;;;5069353;28;20036;-58
2022/04/11 12:28:18;;;;;;;3.72;2.30;;;21.00;55.50;;;;;;5069778;28;20024;-58
2022/04/11 12:30:48;;;;;;;6.10;2.60;;;21.20;55.30;;;;;;5069633;28;20031;-58
2022/04/11 12:33:36;;;;;;;3.75;2.03;;;22.30;54.80;;;;;;5085367;28;20036;-58
2022/04/11 12:36:27;;;;;;;4.05;2.28;;;21.70;54.40;;;;;;5070070;28;20025;-58
2022/04/11 12:38:55;;;;;;;4.55;2.30;;;21.40;55.10;;;;;;5073211;28;20021;-58
2022/04/11 12:41:36;;;;;;;4.57;2.40;;;21.40;54.70;;;;;;5073179;28;20112;-58
2022/04/11 12:44:13;;;;;;;4.95;2.60;;;22.20;54.80;;;;;;5073185;28;20028;-58
2022/04/11 12:46:46;;;;;;;5.40;2.33;;;22.70;55.40;;;;;;5073152;28;20020;-58
2022/04/11 12:49:17;;;;;;;4.35;2.60;;;22.90;55.30;;;;;;5073444;28;20082;-58
2022/04/11 12:51:56;;;;;;;4.45;2.65;;;23.10;55.20;;;;;;5072792;28;20029;-58